Portada
METAR-TAF:

METAR-TAF

Aeroports :

New Haven, Connecticut, Estats Units d'Amèrica

latitud: 41-15-50N, longitud: 072-53-14W, altitud: 4 m

Observació

L'informe es va fer fa 28 minuts, a les 10:53 UTC
Vent 3 kt del Est/Sud-Est
Temperatura 18°C
Humitat 100%
Pressió 1024 hPa
Visibilitat: 0.4 km
boira

METAR: KHVN 221053Z 11003KT 1/4SM R02/2600V3000FT FG VV002 18/18 A3023 RMK AO2 SLP235 T01780178

Hora: 07:21 (11:21 UTC)


TAF: manca

Observacions i pronòstics meteorològics de més de 4000 aeroports (METAR i TAF).

Les estacions disponibles són els punts grocs i vermells al mapa.

Posi el ratolí al punt desitjat per veure el nom de l'estació.

Feu clic per veure les observacions i els pronòstics meteorològics.

Per canviar el mapa: feu clic els botons verds amb una creu de color negre per apropar; al botó verd amb un guió per allunyar la imatge; o en les fletxes verdes per a mapes adjacents.


METAR-TAF: